Terminal Aerodrome Forecast
Issued by NWS Knoxville/Tri Cities, TN

Home | Current Version | Previous Version | Text Only | Print | Product List | Glossary On
Versions: 1 2 3 4 5 6 7 8 9 10 11 12 13 14 15 16 17 18 19 20 21 22 23 24 25 26 27 28 29 30 31 32 33 34 35 36 37 38 39 40 41 42 43
270
FTUS44 KMRX 300528
TAFTRI
TAF
KTRI 300528Z 3006/3106 00000KT P6SM SCT080 SCT210
     FM300900 00000KT 5SM BR OVC009
      TEMPO 3010/3014 3SM BR BKN004
     FM301500 26005KT P6SM SCT025 BKN035
     FM301800 25008KT P6SM SCT050 BKN250
     FM310000 26003KT P6SM BKN250=

USA.gov is the U.S. government's official web portal to all federal, state and local government web resources and services.